createdAt,value
2019-02-09T00:01:20.750Z,99867.30
2019-02-09T00:03:57.804Z,99863.02
2019-02-09T00:06:34.625Z,99863.02
2019-02-09T00:09:08.682Z,99868.95
2019-02-09T00:11:42.304Z,99860.88
2019-02-09T00:14:13.043Z,99859.57
2019-02-09T00:16:54.876Z,99850.28
2019-02-09T00:19:40.817Z,99840.56
2019-02-09T00:22:39.474Z,99836.74
2019-02-09T00:26:09.858Z,99826.55
2019-02-09T00:27:35.995Z,99821.98
2019-02-09T00:30:07.509Z,99830.58
2019-02-09T00:32:40.343Z,99823.44
2019-02-09T00:35:22.512Z,99816.75
2019-02-09T00:37:57.834Z,99809.98
2019-02-09T00:40:42.118Z,99815.16
2019-02-09T00:43:09.919Z,99796.14
2019-02-09T00:45:40.275Z,99803.86
2019-02-09T00:48:12.640Z,99803.11
2019-02-09T00:50:51.386Z,99794.25
2019-02-09T00:53:35.710Z,99802.77
2019-02-09T00:56:09.384Z,99795.92
2019-02-09T00:58:40.770Z,99795.61
2019-02-09T01:01:11.120Z,99796.02
2019-02-09T01:03:55.574Z,99806.20
2019-02-09T01:06:25.491Z,99794.73
2019-02-09T01:08:57.665Z,99792.63
2019-02-09T01:11:28.283Z,99786.25
2019-02-09T01:13:58.860Z,99773.11
2019-02-09T01:16:39.251Z,99767.61
2019-02-09T01:19:17.470Z,99770.94
2019-02-09T01:21:51.433Z,99766.25
2019-02-09T01:24:24.168Z,99774.73
2019-02-09T01:26:54.798Z,99775.05
2019-02-09T01:29:28.069Z,99780.15
2019-02-09T01:32:01.918Z,99783.89
2019-02-09T01:34:35.225Z,99797.84
2019-02-09T01:37:09.988Z,99798.28
2019-02-09T01:39:40.309Z,99782.94
2019-02-09T01:42:12.189Z,99784.19
2019-02-09T01:44:47.288Z,99775.67
2019-02-09T01:47:17.832Z,99775.20
2019-02-09T01:49:48.154Z,99776.02
2019-02-09T01:52:20.651Z,99771.77
2019-02-09T01:54:51.007Z,99770.88
2019-02-09T01:57:21.248Z,99770.41
2019-02-09T01:59:51.636Z,99769.52
2019-02-09T02:02:26.861Z,99761.41
2019-02-09T02:05:14.667Z,99769.83
2019-02-09T02:07:39.495Z,99771.57
2019-02-09T02:10:14.694Z,99772.41
2019-02-09T02:12:45.109Z,99764.83
2019-02-09T02:15:20.080Z,99770.78
2019-02-09T02:17:51.116Z,99779.33
2019-02-09T02:20:24.572Z,99770.00
2019-02-09T02:22:55.093Z,99770.78
2019-02-09T02:25:25.677Z,99771.59
2019-02-09T02:28:07.747Z,99779.34
2019-02-09T02:30:39.404Z,99772.02
2019-02-09T02:33:10.703Z,99769.64
2019-02-09T02:35:42.695Z,99756.52
2019-02-09T02:38:14.504Z,99750.23
2019-02-09T02:40:47.269Z,99743.02
2019-02-09T02:43:17.919Z,99754.48
2019-02-09T02:45:51.495Z,99725.72
2019-02-09T02:48:22.087Z,99725.72
2019-02-09T02:50:55.366Z,99713.14
2019-02-09T02:53:27.395Z,99714.57
2019-02-09T02:56:01.321Z,99730.29
2019-02-09T02:58:33.943Z,99719.74
2019-02-09T03:01:05.718Z,99716.80
2019-02-09T03:03:36.292Z,99737.05
2019-02-09T03:06:18.866Z,99735.85
2019-02-09T03:08:47.631Z,99753.23
2019-02-09T03:11:19.769Z,99753.77
2019-02-09T03:13:51.182Z,99755.44
2019-02-09T03:16:22.842Z,99754.97
2019-02-09T03:18:55.397Z,99747.91
2019-02-09T03:21:40.590Z,99750.77
2019-02-09T03:24:09.336Z,99758.49
2019-02-09T03:26:39.906Z,99752.91
2019-02-09T03:29:10.223Z,99751.38
2019-02-09T03:31:44.471Z,99764.63
2019-02-09T03:34:19.101Z,99770.14
2019-02-09T03:36:52.234Z,99776.42
2019-02-09T03:39:25.607Z,99794.67
2019-02-09T03:41:56.931Z,99782.84
2019-02-09T03:44:27.728Z,99787.02
2019-02-09T03:46:58.418Z,99787.73
2019-02-09T03:49:29.090Z,99788.58
2019-02-09T03:51:59.479Z,99788.67
2019-02-09T03:54:30.104Z,99794.39
2019-02-09T03:57:02.022Z,99799.35
2019-02-09T03:59:32.648Z,99804.69
2019-02-09T04:02:10.967Z,99800.23
2019-02-09T04:04:41.285Z,99801.53
2019-02-09T04:07:11.825Z,99815.70
2019-02-09T04:09:45.510Z,99817.33
2019-02-09T04:12:15.886Z,99805.34
2019-02-09T04:14:46.273Z,99814.73
2019-02-09T04:17:18.095Z,99818.95
2019-02-09T04:19:51.190Z,99814.09
2019-02-09T04:22:27.070Z,99811.38
2019-02-09T04:25:12.147Z,99806.89
2019-02-09T04:27:45.491Z,99820.45
2019-02-09T04:30:19.085Z,99832.81
2019-02-09T04:32:49.450Z,99844.56
2019-02-09T04:35:21.687Z,99838.53
2019-02-09T04:37:56.464Z,99846.55
2019-02-09T04:40:31.467Z,99855.84
2019-02-09T04:43:01.832Z,99849.47
2019-02-09T04:45:36.659Z,99865.56
2019-02-09T04:48:11.025Z,99865.56
2019-02-09T04:50:45.539Z,99842.75
2019-02-09T04:53:15.933Z,99859.57
2019-02-09T04:55:48.478Z,99860.08
2019-02-09T04:58:18.805Z,99859.72
2019-02-09T05:00:50.769Z,99849.27
2019-02-09T05:03:22.658Z,99860.67
2019-02-09T05:05:53.741Z,99859.55
2019-02-09T05:08:28.121Z,99862.59
2019-02-09T05:11:02.394Z,99863.23
2019-02-09T05:13:34.812Z,99866.98
2019-02-09T05:16:07.137Z,99878.08
2019-02-09T05:18:37.430Z,99869.47
2019-02-09T05:21:09.418Z,99867.82
2019-02-09T05:23:41.241Z,99878.47
2019-02-09T05:26:14.691Z,99877.91
2019-02-09T05:28:45.233Z,99872.11
2019-02-09T05:31:22.889Z,99877.39
2019-02-09T05:33:57.457Z,99879.56
2019-02-09T05:36:24.746Z,99891.39
2019-02-09T05:38:56.039Z,99880.61
2019-02-09T05:41:29.358Z,99886.72
2019-02-09T05:44:00.396Z,99897.83
2019-02-09T05:46:33.668Z,99900.69
2019-02-09T05:49:04.542Z,99904.67
2019-02-09T05:51:35.534Z,99910.16
2019-02-09T05:54:07.040Z,99926.97
2019-02-09T05:56:37.562Z,99923.25
2019-02-09T05:59:07.946Z,99941.20
2019-02-09T06:01:39.842Z,99936.64
2019-02-09T06:04:15.104Z,99953.31
2019-02-09T06:06:45.020Z,99947.16
2019-02-09T06:09:14.540Z,99948.80
2019-02-09T06:11:46.591Z,99959.09
2019-02-09T06:14:18.624Z,99968.19
2019-02-09T06:16:56.926Z,99963.94
2019-02-09T06:19:29.857Z,99967.81
2019-02-09T06:22:04.169Z,99975.36
2019-02-09T06:24:34.620Z,99959.26
2019-02-09T06:27:05.250Z,99963.52
2019-02-09T06:29:43.358Z,99957.14
2019-02-09T06:32:23.531Z,99955.44
2019-02-09T06:34:56.639Z,99957.88
2019-02-09T06:37:26.940Z,99953.27
2019-02-09T06:40:01.001Z,99956.80
2019-02-09T06:42:31.682Z,99955.63
2019-02-09T06:45:02.114Z,99972.45
2019-02-09T06:47:36.551Z,99973.38
2019-02-09T06:50:11.045Z,99972.44
2019-02-09T06:52:41.634Z,99982.53
2019-02-09T06:55:14.656Z,99977.31
2019-02-09T06:57:45.114Z,99995.45
2019-02-09T07:00:21.279Z,99990.93
2019-02-09T07:02:54.543Z,100003.36
2019-02-09T07:05:25.021Z,100001.80
2019-02-09T07:07:55.600Z,100022.19
2019-02-09T07:10:35.645Z,100032.14
2019-02-09T07:13:03.542Z,100042.88
2019-02-09T07:15:35.875Z,100060.22
2019-02-09T07:18:08.301Z,100052.91
2019-02-09T07:20:38.729Z,100053.83
2019-02-09T07:23:10.604Z,100053.23
2019-02-09T07:25:53.381Z,100055.75
2019-02-09T07:28:17.484Z,100048.98
2019-02-09T07:30:48.066Z,100045.97
2019-02-09T07:33:31.378Z,100058.19
2019-02-09T07:36:02.764Z,100052.58
2019-02-09T07:38:40.968Z,100067.81
2019-02-09T07:41:10.835Z,100065.66
2019-02-09T07:43:41.167Z,100065.41
2019-02-09T07:46:14.267Z,100070.72
2019-02-09T07:48:45.849Z,100073.39
2019-02-09T07:51:17.551Z,100077.11
2019-02-09T07:53:50.142Z,100083.77
2019-02-09T07:56:20.637Z,100084.68
2019-02-09T07:58:52.248Z,100091.95
2019-02-09T08:01:22.585Z,100096.96
2019-02-09T08:03:53.157Z,100100.56
2019-02-09T08:06:24.979Z,100108.13
2019-02-09T08:09:02.373Z,100120.05
2019-02-09T08:11:36.644Z,100114.78
2019-02-09T08:14:08.514Z,100122.42
2019-02-09T08:16:40.154Z,100122.52
2019-02-09T08:19:13.663Z,100121.05
2019-02-09T08:21:44.447Z,100133.20
2019-02-09T08:24:16.799Z,100125.48
2019-02-09T08:26:47.345Z,100127.90
2019-02-09T08:29:19.986Z,100125.18
2019-02-09T08:31:52.372Z,100127.92
2019-02-09T08:34:28.269Z,100121.75
2019-02-09T08:37:00.556Z,100118.92
2019-02-09T08:39:34.651Z,100119.48
2019-02-09T08:42:13.534Z,100121.05
2019-02-09T08:44:44.685Z,100130.00
2019-02-09T08:47:15.266Z,100118.41
2019-02-09T08:49:46.742Z,100113.98
2019-02-09T08:52:28.684Z,100104.12
2019-02-09T08:55:00.876Z,100102.34
2019-02-09T08:57:32.885Z,100110.27
2019-02-09T09:00:03.336Z,100122.84
2019-02-09T09:02:39.145Z,100117.48
2019-02-09T09:05:16.214Z,100123.11
2019-02-09T09:07:48.384Z,100114.39
2019-02-09T09:10:20.206Z,100120.38
2019-02-09T09:12:51.932Z,100108.07
2019-02-09T09:15:25.790Z,100106.54
2019-02-09T09:18:01.335Z,100125.95
2019-02-09T09:20:37.580Z,100144.12
2019-02-09T09:23:09.507Z,100146.06
2019-02-09T09:25:40.110Z,100158.69
2019-02-09T09:28:11.905Z,100149.59
2019-02-09T09:30:48.868Z,100171.58
2019-02-09T09:33:22.218Z,100157.30
2019-02-09T09:35:52.757Z,100162.70
2019-02-09T09:38:23.133Z,100148.41
2019-02-09T09:40:53.856Z,100160.91
2019-02-09T09:43:31.309Z,100158.30
2019-02-09T09:46:04.776Z,100151.78
2019-02-09T09:48:37.584Z,100159.20
2019-02-09T09:51:09.482Z,100156.70
2019-02-09T09:53:40.127Z,100173.27
2019-02-09T09:56:10.510Z,100178.05
2019-02-09T09:58:41.001Z,100174.83
2019-02-09T10:01:13.913Z,100157.89
2019-02-09T10:03:46.383Z,100174.38
2019-02-09T10:06:18.586Z,100171.37
2019-02-09T10:08:49.098Z,100178.50
2019-02-09T10:11:22.017Z,100157.11
2019-02-09T10:13:52.341Z,100132.09
2019-02-09T10:16:23.196Z,100142.10
2019-02-09T10:18:53.894Z,100159.37
2019-02-09T10:21:24.224Z,100183.81
2019-02-09T10:23:55.814Z,100182.98
2019-02-09T10:26:34.775Z,100183.33
2019-02-09T10:29:03.562Z,100191.36
2019-02-09T10:31:33.890Z,100206.03
2019-02-09T10:34:07.936Z,100192.67
2019-02-09T10:36:38.658Z,100192.67
2019-02-09T10:39:10.315Z,100212.31
2019-02-09T10:41:41.115Z,100209.20
2019-02-09T10:44:16.414Z,100210.15
2019-02-09T10:47:08.100Z,100207.35
2019-02-09T10:49:51.154Z,100203.06
2019-02-09T10:52:11.935Z,100220.45
2019-02-09T10:54:42.291Z,100216.39
2019-02-09T10:57:14.217Z,100234.39
2019-02-09T10:59:44.837Z,100239.69
2019-02-09T11:02:16.931Z,100215.01
2019-02-09T11:04:47.259Z,100216.31
2019-02-09T11:07:28.061Z,100231.08
2019-02-09T11:10:17.612Z,100236.56
2019-02-09T11:12:32.963Z,100232.31
2019-02-09T11:15:06.660Z,100225.98
2019-02-09T11:17:37.120Z,100219.72
2019-02-09T11:20:19.043Z,100220.45
2019-02-09T11:22:52.071Z,100215.33
2019-02-09T11:25:24.768Z,100209.44
2019-02-09T11:27:55.162Z,100202.87
2019-02-09T11:30:26.051Z,100209.31
2019-02-09T11:33:03.409Z,100210.90
2019-02-09T11:35:29.243Z,100210.58
2019-02-09T11:38:04.618Z,100198.33
2019-02-09T11:40:35.544Z,100203.08
2019-02-09T11:43:07.177Z,100208.46
2019-02-09T11:45:38.321Z,100179.39
2019-02-09T11:48:38.133Z,100185.59
2019-02-09T11:50:44.815Z,100187.38
2019-02-09T11:53:15.375Z,100170.02
2019-02-09T11:55:45.860Z,100195.43
2019-02-09T11:58:16.567Z,100197.65
2019-02-09T12:00:53.750Z,100206.44
2019-02-09T12:03:24.257Z,100204.74
2019-02-09T12:05:54.715Z,100204.20
2019-02-09T12:08:28.341Z,100205.57
2019-02-09T12:11:02.517Z,100204.95
2019-02-09T12:13:34.819Z,100202.73
2019-02-09T12:16:08.755Z,100210.13
2019-02-09T12:18:39.297Z,100213.55
2019-02-09T12:21:10.926Z,100197.28
2019-02-09T12:23:44.112Z,100196.77
2019-02-09T12:26:17.468Z,100200.63
2019-02-09T12:28:49.513Z,100206.62
2019-02-09T12:31:20.475Z,100196.19
2019-02-09T12:33:54.247Z,100215.83
2019-02-09T12:36:30.333Z,100231.93
2019-02-09T12:39:02.702Z,100222.47
2019-02-09T12:41:34.689Z,100222.89
2019-02-09T12:44:09.236Z,100220.73
2019-02-09T12:46:46.809Z,100232.23
2019-02-09T12:49:24.002Z,100206.43
2019-02-09T12:51:56.263Z,100231.52
2019-02-09T12:54:28.648Z,100224.75
2019-02-09T12:57:04.028Z,100208.72
2019-02-09T12:59:34.505Z,100219.25
2019-02-09T13:02:10.870Z,100214.33
2019-02-09T13:04:43.730Z,100227.06
2019-02-09T13:07:14.351Z,100231.92
2019-02-09T13:09:52.731Z,100231.64
2019-02-09T13:12:31.194Z,100229.23
2019-02-09T13:15:14.449Z,100247.81
2019-02-09T13:17:46.533Z,100235.94
2019-02-09T13:20:20.368Z,100241.92
2019-02-09T13:22:51.657Z,100232.55
2019-02-09T13:25:26.475Z,100221.95
2019-02-09T13:28:10.694Z,100238.91
2019-02-09T13:30:44.797Z,100231.76
2019-02-09T13:33:17.957Z,100229.06
2019-02-09T13:35:49.013Z,100223.58
2019-02-09T13:38:19.770Z,100206.24
2019-02-09T13:40:56.815Z,100222.88
2019-02-09T13:43:46.514Z,100229.69
2019-02-09T13:46:05.581Z,100230.92
2019-02-09T13:48:38.126Z,100213.72
2019-02-09T13:51:08.995Z,100215.06
2019-02-09T13:53:41.559Z,100243.85
2019-02-09T13:56:13.608Z,100233.60
2019-02-09T13:58:47.020Z,100244.67
2019-02-09T14:01:26.393Z,100231.73
2019-02-09T14:03:58.949Z,100231.63
2019-02-09T14:06:29.707Z,100255.60
2019-02-09T14:09:00.655Z,100267.66
2019-02-09T14:11:31.044Z,100261.48
2019-02-09T14:14:02.651Z,100262.42
2019-02-09T14:16:38.601Z,100266.00
2019-02-09T14:21:42.957Z,100315.66
2019-02-09T14:24:15.746Z,100333.36
2019-02-09T14:26:56.959Z,100317.98
2019-02-09T14:29:27.600Z,100353.16
2019-02-09T14:31:58.615Z,100345.42
2019-02-09T14:34:39.387Z,100331.42
2019-02-09T14:37:15.596Z,100334.25
2019-02-09T14:39:52.847Z,100331.87
2019-02-09T14:42:29.842Z,100317.55
2019-02-09T14:44:58.397Z,100320.88
2019-02-09T14:47:29.030Z,100320.88
2019-02-09T14:50:12.930Z,100336.73
2019-02-09T14:52:59.079Z,100332.23
2019-02-09T14:55:33.501Z,100335.75
2019-02-09T14:58:10.965Z,100343.38
2019-02-09T15:00:54.575Z,100348.81
2019-02-09T15:03:30.413Z,100340.39
2019-02-09T15:05:59.013Z,100352.13
2019-02-09T15:08:31.309Z,100344.74
2019-02-09T15:11:01.984Z,100347.33
2019-02-09T15:14:01.935Z,100349.66
2019-02-09T15:16:40.282Z,100344.88
2019-02-09T15:19:33.184Z,100334.14
2019-02-09T15:22:00.073Z,100348.77
2019-02-09T15:24:30.492Z,100348.26
2019-02-09T15:27:01.577Z,100344.13
2019-02-09T15:29:31.916Z,100359.02
2019-02-09T15:32:04.284Z,100358.31
2019-02-09T15:34:34.798Z,100358.55
2019-02-09T15:37:06.897Z,100356.98
2019-02-09T15:39:37.448Z,100373.09
2019-02-09T15:42:10.261Z,100369.20
2019-02-09T15:44:48.670Z,100373.80
2019-02-09T15:47:23.567Z,100364.03
2019-02-09T15:49:58.414Z,100361.52
2019-02-09T15:52:31.783Z,100363.95
2019-02-09T15:55:02.324Z,100362.48
2019-02-09T15:57:33.085Z,100364.94
2019-02-09T16:00:03.984Z,100368.92
2019-02-09T16:02:36.135Z,100368.45
2019-02-09T16:05:15.762Z,100370.86
2019-02-09T16:07:46.672Z,100379.09
2019-02-09T16:10:19.661Z,100369.41
2019-02-09T16:12:50.108Z,100380.99
2019-02-09T16:15:34.853Z,100377.86
2019-02-09T16:18:13.003Z,100381.77
2019-02-09T16:20:47.980Z,100389.05
2019-02-09T16:23:18.717Z,100387.11
2019-02-09T16:25:51.060Z,100398.48
2019-02-09T16:28:21.716Z,100394.66
2019-02-09T16:30:54.931Z,100386.33
2019-02-09T16:34:05.460Z,100393.02
2019-02-09T16:36:02.467Z,100380.41
2019-02-09T16:38:33.433Z,100389.75
2019-02-09T16:41:04.056Z,100387.13
2019-02-09T16:43:43.577Z,100390.48
2019-02-09T16:46:28.792Z,100393.05
2019-02-09T16:49:02.774Z,100406.11
2019-02-09T16:51:32.965Z,100416.42
2019-02-09T16:54:05.513Z,100422.96
2019-02-09T16:56:41.753Z,100423.23
2019-02-09T16:59:25.613Z,100442.39
2019-02-09T17:02:02.386Z,100430.67
2019-02-09T17:04:34.987Z,100450.35
2019-02-09T17:07:05.482Z,100450.35
2019-02-09T17:09:39.668Z,100449.66
2019-02-09T17:12:12.343Z,100456.95
2019-02-09T17:14:46.077Z,100451.65
2019-02-09T17:17:18.434Z,100451.65
2019-02-09T17:19:49.035Z,100454.56
2019-02-09T17:22:22.581Z,100451.74
2019-02-09T17:24:53.321Z,100452.27
2019-02-09T17:27:25.590Z,100453.79
2019-02-09T17:29:57.292Z,100465.65
2019-02-09T17:32:27.951Z,100463.39
2019-02-09T17:34:58.705Z,100466.05
2019-02-09T17:37:29.620Z,100472.79
2019-02-09T17:40:16.754Z,100471.28
2019-02-09T17:42:34.317Z,100471.72
2019-02-09T17:45:05.884Z,100481.47
2019-02-09T17:47:36.371Z,100482.11
2019-02-09T17:50:08.437Z,100486.17
2019-02-09T17:52:43.622Z,100488.48
2019-02-09T17:55:16.221Z,100483.79
2019-02-09T17:57:48.354Z,100483.79
2019-02-09T18:00:23.083Z,100487.48
2019-02-09T18:02:53.691Z,100489.69
2019-02-09T18:05:24.540Z,100495.02
2019-02-09T18:08:26.899Z,100494.50
2019-02-09T18:10:34.025Z,100499.88
2019-02-09T18:13:04.892Z,100495.13
2019-02-09T18:15:36.026Z,100495.84
2019-02-09T18:18:07.487Z,100495.84
2019-02-09T18:20:42.916Z,100497.56
2019-02-09T18:23:13.277Z,100505.08
2019-02-09T18:25:43.968Z,100502.89
2019-02-09T18:28:18.865Z,100503.72
2019-02-09T18:30:51.324Z,100495.84
2019-02-09T18:33:23.565Z,100501.27
2019-02-09T18:35:54.028Z,100502.22
2019-02-09T18:38:24.458Z,100501.91
2019-02-09T18:40:56.767Z,100502.66
2019-02-09T18:43:27.435Z,100498.83
2019-02-09T18:45:59.181Z,100504.28
2019-02-09T18:48:32.799Z,100509.73
2019-02-09T18:51:04.424Z,100511.66
2019-02-09T18:53:36.448Z,100514.00
2019-02-09T18:56:15.212Z,100511.92
2019-02-09T18:58:41.523Z,100510.64
2019-02-09T19:01:12.066Z,100519.26
2019-02-09T19:03:44.106Z,100514.23
2019-02-09T19:06:22.672Z,100515.72
2019-02-09T19:08:54.673Z,100515.72
2019-02-09T19:11:25.322Z,100521.41
2019-02-09T19:13:55.672Z,100517.34
2019-02-09T19:16:31.603Z,100526.38
2019-02-09T19:19:06.354Z,100528.75
2019-02-09T19:21:49.513Z,100532.16
2019-02-09T19:24:27.885Z,100539.38
2019-02-09T19:26:55.012Z,100528.47
2019-02-09T19:29:27.947Z,100539.32
2019-02-09T19:32:02.713Z,100531.98
2019-02-09T19:34:36.918Z,100529.77
2019-02-09T19:37:10.988Z,100537.41
2019-02-09T19:39:41.699Z,100527.09
2019-02-09T19:42:12.317Z,100525.27
2019-02-09T19:44:44.369Z,100526.06
2019-02-09T19:47:22.505Z,100535.79
2019-02-09T19:49:54.861Z,100533.84
2019-02-09T19:52:29.964Z,100541.33
2019-02-09T19:55:14.495Z,100535.16
2019-02-09T19:57:37.701Z,100535.16
2019-02-09T20:00:11.650Z,100534.08
2019-02-09T20:02:45.050Z,100531.01
2019-02-09T20:05:20.729Z,100542.40
2019-02-09T20:07:52.496Z,100534.41
2019-02-09T20:10:27.513Z,100530.47
2019-02-09T20:12:59.900Z,100525.38
2019-02-09T20:15:36.793Z,100528.73
2019-02-09T20:18:10.563Z,100536.13
2019-02-09T20:20:48.982Z,100527.29
2019-02-09T20:23:19.659Z,100524.38
2019-02-09T20:25:50.113Z,100524.38
2019-02-09T20:28:26.519Z,100527.58
2019-02-09T20:30:56.976Z,100528.13
2019-02-09T20:33:37.122Z,100526.62
2019-02-09T20:36:09.292Z,100528.05
2019-02-09T20:38:40.038Z,100530.79
2019-02-09T20:41:11.278Z,100533.00
2019-02-09T20:43:42.680Z,100529.32
2019-02-09T20:46:13.302Z,100523.76
2019-02-09T20:48:43.857Z,100526.55
2019-02-09T20:51:14.255Z,100527.70
2019-02-09T20:53:48.730Z,100524.75
2019-02-09T20:56:26.317Z,100525.81
2019-02-09T20:58:56.742Z,100517.92
2019-02-09T21:01:40.047Z,100525.84
2019-02-09T21:04:04.640Z,100531.92
2019-02-09T21:06:36.212Z,100526.53
2019-02-09T21:09:08.807Z,100526.88
2019-02-09T21:11:41.323Z,100522.36
2019-02-09T21:14:21.438Z,100517.73
2019-02-09T21:16:53.036Z,100523.12
2019-02-09T21:19:24.608Z,100522.72
2019-02-09T21:21:56.450Z,100527.22
2019-02-09T21:24:30.102Z,100526.99
2019-02-09T21:27:06.060Z,100507.87
2019-02-09T21:29:38.531Z,100515.83
2019-02-09T21:32:11.530Z,100519.69
2019-02-09T21:34:42.223Z,100512.73
2019-02-09T21:37:20.537Z,100513.96
2019-02-09T21:39:53.597Z,100521.25
2019-02-09T21:42:26.018Z,100518.02
2019-02-09T21:44:57.989Z,100527.69
2019-02-09T21:47:29.828Z,100524.42
2019-02-09T21:50:04.243Z,100520.13
2019-02-09T21:52:56.286Z,100515.14
2019-02-09T21:55:36.521Z,100504.33
2019-02-09T21:58:07.920Z,100496.72
2019-02-09T22:00:44.884Z,100495.77
2019-02-09T22:03:15.823Z,100491.72
2019-02-09T22:05:51.805Z,100492.66
2019-02-09T22:08:20.024Z,100495.21
2019-02-09T22:10:50.632Z,100493.36
2019-02-09T22:13:20.962Z,100485.91
2019-02-09T22:15:51.853Z,100486.72
2019-02-09T22:18:22.591Z,100485.33
2019-02-09T22:20:54.464Z,100486.43
2019-02-09T22:23:33.688Z,100479.47
2019-02-09T22:26:04.116Z,100481.22
2019-02-09T22:28:34.814Z,100483.88
2019-02-09T22:31:05.959Z,100478.55
2019-02-09T22:33:40.170Z,100482.68
2019-02-09T22:36:14.869Z,100473.30
2019-02-09T22:38:46.617Z,100475.38
2019-02-09T22:41:19.023Z,100471.30
2019-02-09T22:43:49.430Z,100465.13
2019-02-09T22:46:23.135Z,100466.07
2019-02-09T22:48:54.888Z,100459.69
2019-02-09T22:51:30.376Z,100455.98
2019-02-09T22:54:03.850Z,100454.16
2019-02-09T22:56:34.479Z,100446.55
2019-02-09T22:59:05.292Z,100443.88
2019-02-09T23:01:45.273Z,100444.83
2019-02-09T23:04:42.763Z,100439.76
2019-02-09T23:07:19.163Z,100428.43
2019-02-09T23:09:56.171Z,100424.90
2019-02-09T23:12:33.230Z,100427.09
2019-02-09T23:15:24.005Z,100424.13
2019-02-09T23:20:47.914Z,100413.97
2019-02-09T23:23:24.011Z,100399.50
2019-02-09T23:25:56.627Z,100394.90
2019-02-09T23:28:27.058Z,100397.88
2019-02-09T23:30:57.614Z,100400.50
2019-02-09T23:33:29.138Z,100389.22
2019-02-09T23:36:02.872Z,100387.48
2019-02-09T23:38:33.521Z,100379.45
2019-02-09T23:41:08.854Z,100376.19
2019-02-09T23:43:41.843Z,100369.19
2019-02-09T23:46:16.222Z,100361.88
2019-02-09T23:48:48.170Z,100359.78
2019-02-09T23:51:18.912Z,100352.84
2019-02-09T23:53:49.228Z,100350.05
2019-02-09T23:56:23.908Z,100352.25
2019-02-09T23:58:54.192Z,100352.25
